Terminal Aerodrome Forecast
Issued by NWS

Home | Current Version | Previous Version | Graphics & Text | Print | Product List | Glossary On
Versions: 1 2 3 4 5 6 7 8 9 10 11 12 13 14 15 16 17 18 19 20 21
813
FTUS41 KCLE 102341
TAFFDY
TAF
KFDY 102341Z 1100/1124 27015KT 2SM -SHSN BKN016 OVC028
      TEMPO 1100/1103 3/4SM -SN OVC010
     FM110400 28014KT 5SM -SHSN OVC035
     FM110600 29010KT P6SM SCT040
     FM111600 28008KT P6SM BKN035=

USA.gov is the U.S. government's official web portal to all federal, state and local government web resources and services.